Time;durP1;ratioP1;P1;durP2;ratioP2;P2;SDS_P1;SDS_P2;PMS_P1;PMS_P2;Temp;Humidity;BMP_temperature;BMP_pressure;BME280_temperature;BME280_humidity;BME280_pressure;Samples;Min_cycle;Max_cycle;Signal;HPM_P1;HPM_P2
2022/07/26 00:01:24;;;;;;;5.47;1.20;;;19.20;86.80;;;;;;5069838;28;20044;-62
2022/07/26 00:03:50;;;;;;;3.53;1.00;;;19.20;86.70;;;;;;5068679;28;20041;-62
2022/07/26 00:06:17;;;;;;;4.55;0.80;;;19.20;87.20;;;;;;5069511;28;20045;-62
2022/07/26 00:08:43;;;;;;;3.63;0.70;;;19.20;87.20;;;;;;5068716;28;20446;-62
2022/07/26 00:11:09;;;;;;;4.20;0.70;;;19.20;87.30;;;;;;5069716;28;20488;-62
2022/07/26 00:13:34;;;;;;;3.22;0.70;;;19.20;87.90;;;;;;5067995;28;20020;-62
2022/07/26 00:16:00;;;;;;;4.22;0.80;;;19.20;87.20;;;;;;5069021;28;20434;-62
2022/07/26 00:18:26;;;;;;;6.75;0.98;;;19.20;87.30;;;;;;5069024;28;20073;-62
2022/07/26 00:20:52;;;;;;;2.30;0.60;;;19.20;87.30;;;;;;5068892;28;20021;-62
2022/07/26 00:23:18;;;;;;;1.63;0.50;;;19.30;87.30;;;;;;5067968;28;20059;-62
2022/07/26 00:25:45;;;;;;;2.63;0.70;;;19.30;87.30;;;;;;5069753;28;20067;-62
2022/07/26 00:28:11;;;;;;;4.22;1.20;;;19.30;87.30;;;;;;5069122;28;20108;-62
2022/07/26 00:30:37;;;;;;;5.68;1.30;;;19.30;87.60;;;;;;5069015;28;20024;-62
2022/07/26 00:33:03;;;;;;;3.40;1.10;;;19.30;87.80;;;;;;5069839;28;20024;-62
2022/07/26 00:35:29;;;;;;;6.05;1.33;;;19.30;87.80;;;;;;5069396;28;20075;-62
2022/07/26 00:37:54;;;;;;;5.15;0.88;;;19.30;87.90;;;;;;5069412;28;20032;-62
2022/07/26 00:40:20;;;;;;;6.07;1.02;;;19.30;88.10;;;;;;5068148;28;20024;-62
2022/07/26 00:42:46;;;;;;;9.32;1.25;;;19.30;88.10;;;;;;5069858;28;20029;-62
2022/07/26 00:45:12;;;;;;;5.30;1.17;;;19.30;88.30;;;;;;5068894;28;20067;-63
2022/07/26 00:47:38;;;;;;;4.85;1.10;;;19.30;88.50;;;;;;5067479;28;20043;-62
2022/07/26 00:50:06;;;;;;;6.40;1.45;;;19.30;88.80;;;;;;5071316;28;20507;-62
2022/07/26 00:52:32;;;;;;;6.05;1.20;;;19.30;89.00;;;;;;5070380;28;20063;-62
2022/07/26 00:54:58;;;;;;;4.25;1.27;;;19.30;89.00;;;;;;5070732;28;20323;-62
2022/07/26 00:57:24;;;;;;;4.22;1.52;;;19.30;89.20;;;;;;5070109;28;20031;-62
2022/07/26 00:59:50;;;;;;;6.30;1.70;;;19.30;89.30;;;;;;5068437;28;20056;-62
2022/07/26 01:02:17;;;;;;;4.72;0.80;;;19.30;89.70;;;;;;5067539;28;20431;-62
2022/07/26 01:04:43;;;;;;;7.47;1.65;;;19.30;89.60;;;;;;5066444;28;20488;-62
2022/07/26 01:07:09;;;;;;;2.97;0.80;;;19.30;89.70;;;;;;5067766;28;20032;-62
2022/07/26 01:09:36;;;;;;;4.63;1.15;;;19.30;89.80;;;;;;5068906;28;20043;-62
2022/07/26 01:12:01;;;;;;;7.25;1.85;;;19.30;90.00;;;;;;5068528;28;20078;-62
2022/07/26 01:14:27;;;;;;;7.50;1.17;;;19.20;90.00;;;;;;5066469;28;20032;-62
2022/07/26 01:16:53;;;;;;;5.10;1.15;;;19.30;90.00;;;;;;5082748;28;20115;-62
2022/07/26 01:19:18;;;;;;;7.32;1.27;;;19.30;90.10;;;;;;5067985;28;20024;-62
2022/07/26 01:21:44;;;;;;;4.53;1.00;;;19.30;90.20;;;;;;5069003;28;20019;-62
2022/07/26 01:24:10;;;;;;;5.03;1.20;;;19.20;90.20;;;;;;5066022;28;20039;-62
2022/07/26 01:26:36;;;;;;;4.72;1.17;;;19.30;90.20;;;;;;5067225;28;20476;-62
2022/07/26 01:29:02;;;;;;;4.75;1.13;;;19.20;90.20;;;;;;5068765;28;20119;-62
2022/07/26 01:31:28;;;;;;;3.78;1.33;;;19.20;90.50;;;;;;5065902;28;20383;-62
2022/07/26 01:33:54;;;;;;;6.03;1.33;;;19.30;90.40;;;;;;5065066;28;20081;-62
2022/07/26 01:36:19;;;;;;;8.02;1.63;;;19.20;90.40;;;;;;5066908;28;20586;-62
2022/07/26 01:38:45;;;;;;;5.05;1.42;;;19.20;90.50;;;;;;5068203;28;20055;-62
2022/07/26 01:41:11;;;;;;;7.18;1.38;;;19.20;90.60;;;;;;5066148;28;20017;-62
2022/07/26 01:43:36;;;;;;;7.25;1.55;;;19.20;90.70;;;;;;5067965;28;20044;-62
2022/07/26 01:46:04;;;;;;;6.80;1.40;;;19.20;90.90;;;;;;5067837;28;20115;-62
2022/07/26 01:48:30;;;;;;;6.35;1.17;;;19.20;91.30;;;;;;5069204;28;20054;-62
2022/07/26 01:50:55;;;;;;;6.25;2.00;;;19.20;91.10;;;;;;5066117;28;20036;-62
2022/07/26 01:53:21;;;;;;;4.72;1.27;;;19.20;91.30;;;;;;5067817;28;20025;-62
2022/07/26 01:55:47;;;;;;;9.43;1.98;;;19.20;91.60;;;;;;5066388;28;20061;-62
2022/07/26 01:58:13;;;;;;;9.07;1.98;;;19.10;92.00;;;;;;5067441;28;20051;-62
2022/07/26 02:00:38;;;;;;;6.43;1.83;;;19.10;92.40;;;;;;5067000;28;20044;-62
2022/07/26 02:03:04;;;;;;;5.15;1.52;;;19.00;92.60;;;;;;5067839;28;20078;-61
2022/07/26 02:05:29;;;;;;;6.15;1.38;;;19.00;92.90;;;;;;5066055;28;20017;-62
2022/07/26 02:07:55;;;;;;;5.18;1.70;;;19.00;93.20;;;;;;5068344;28;20030;-62
2022/07/26 02:10:21;;;;;;;4.40;1.27;;;19.00;93.40;;;;;;5067612;28;20027;-62
2022/07/26 02:12:46;;;;;;;6.97;1.38;;;19.00;93.70;;;;;;5066491;28;20035;-61
2022/07/26 02:15:14;;;;;;;5.70;1.50;;;19.00;93.90;;;;;;5067876;28;20020;-62
2022/07/26 02:17:39;;;;;;;4.70;1.88;;;18.90;94.20;;;;;;5068993;28;20060;-62
2022/07/26 02:20:06;;;;;;;4.05;1.13;;;18.90;94.40;;;;;;5066018;28;20473;-61
2022/07/26 02:22:32;;;;;;;5.03;1.08;;;18.90;94.50;;;;;;5066269;28;20470;-62
2022/07/26 02:24:58;;;;;;;4.38;1.20;;;18.90;94.60;;;;;;5067066;28;20028;-62
2022/07/26 02:27:23;;;;;;;5.97;1.52;;;18.90;94.70;;;;;;5067481;28;20029;-62
2022/07/26 02:29:49;;;;;;;4.30;1.23;;;18.80;95.00;;;;;;5066506;28;20043;-61
2022/07/26 02:32:14;;;;;;;4.63;1.42;;;18.80;95.30;;;;;;5064647;28;20047;-62
2022/07/26 02:34:40;;;;;;;2.30;1.08;;;18.70;95.40;;;;;;5067633;28;20032;-62
2022/07/26 02:37:05;;;;;;;3.72;1.50;;;18.70;95.60;;;;;;5067064;28;20052;-62
2022/07/26 02:39:31;;;;;;;6.10;1.83;;;18.60;95.70;;;;;;5065094;28;20066;-62
2022/07/26 02:41:59;;;;;;;4.45;1.17;;;18.60;95.90;;;;;;5066250;28;20093;-62
2022/07/26 02:44:26;;;;;;;5.40;1.65;;;18.60;96.10;;;;;;5066441;28;20051;-62
2022/07/26 02:46:52;;;;;;;4.97;1.58;;;18.60;96.30;;;;;;5067401;28;20040;-62
2022/07/26 02:49:18;;;;;;;3.95;1.30;;;18.50;96.40;;;;;;5065128;28;20079;-62
2022/07/26 02:51:44;;;;;;;4.18;1.60;;;18.50;96.50;;;;;;5066532;28;20013;-62
2022/07/26 02:54:10;;;;;;;4.60;1.40;;;18.50;96.60;;;;;;5064837;28;20028;-62
2022/07/26 02:56:36;;;;;;;5.00;1.63;;;18.50;96.70;;;;;;5068205;28;20032;-62
2022/07/26 02:59:02;;;;;;;2.75;1.40;;;18.50;96.70;;;;;;5064980;28;20428;-62
2022/07/26 03:01:28;;;;;;;5.97;1.40;;;18.60;96.80;;;;;;5066185;28;20029;-62
2022/07/26 03:03:53;;;;;;;7.55;1.60;;;18.60;96.80;;;;;;5065272;28;20090;-62
2022/07/26 03:06:19;;;;;;;6.05;1.30;;;18.60;96.90;;;;;;5066134;28;20029;-62
2022/07/26 03:08:45;;;;;;;4.10;1.10;;;18.60;96.90;;;;;;5066772;28;20074;-62
2022/07/26 03:11:11;;;;;;;4.50;1.17;;;18.60;96.90;;;;;;5066166;28;20035;-62
2022/07/26 03:13:37;;;;;;;4.85;1.48;;;18.60;96.90;;;;;;5069221;28;20025;-61
2022/07/26 03:16:02;;;;;;;3.47;0.90;;;18.60;96.90;;;;;;5086230;28;20031;-62
2022/07/26 03:18:28;;;;;;;3.85;0.98;;;18.60;97.00;;;;;;5071259;28;20104;-62
2022/07/26 03:20:54;;;;;;;3.15;1.08;;;18.60;97.00;;;;;;5086093;28;20365;-61
2022/07/26 03:23:19;;;;;;;3.63;0.95;;;18.60;97.00;;;;;;5067462;28;20059;-62
2022/07/26 03:25:45;;;;;;;5.15;1.10;;;18.60;97.00;;;;;;5086039;28;20025;-62
2022/07/26 03:28:11;;;;;;;4.53;1.17;;;18.60;97.10;;;;;;5070295;28;20086;-62
2022/07/26 03:30:36;;;;;;;4.45;1.02;;;18.60;97.10;;;;;;5070772;28;20055;-62
2022/07/26 03:33:02;;;;;;;4.13;1.88;;;18.60;97.20;;;;;;5068476;28;20032;-62
2022/07/26 03:35:27;;;;;;;4.97;1.35;;;18.50;97.20;;;;;;5085182;28;20029;-62
2022/07/26 03:37:53;;;;;;;6.18;1.30;;;18.50;97.30;;;;;;5068738;28;20025;-61
2022/07/26 03:40:19;;;;;;;5.75;1.70;;;18.50;97.30;;;;;;5070363;28;20039;-62
2022/07/26 03:42:46;;;;;;;4.32;1.25;;;18.50;97.40;;;;;;5070270;28;20411;-62
2022/07/26 03:45:13;;;;;;;6.60;2.05;;;18.50;97.40;;;;;;5070145;28;20070;-62
2022/07/26 03:47:39;;;;;;;5.07;1.63;;;18.50;97.50;;;;;;5068760;28;20021;-62
2022/07/26 03:50:06;;;;;;;6.85;1.50;;;18.50;97.60;;;;;;5070260;28;20480;-62
2022/07/26 03:52:31;;;;;;;5.75;1.70;;;18.50;97.70;;;;;;5069584;28;20384;-62
2022/07/26 03:54:57;;;;;;;4.82;1.50;;;18.50;97.70;;;;;;5070540;28;20025;-62
2022/07/26 03:57:23;;;;;;;3.10;1.13;;;18.50;97.70;;;;;;5069989;28;20491;-62
2022/07/26 03:59:48;;;;;;;7.30;1.70;;;18.50;97.80;;;;;;5069132;28;20489;-62
2022/07/26 04:02:14;;;;;;;3.92;1.73;;;18.50;97.80;;;;;;5070934;28;20123;-62
2022/07/26 04:04:39;;;;;;;3.70;1.40;;;18.50;97.90;;;;;;5069249;28;20472;-62
2022/07/26 04:07:05;;;;;;;5.65;1.63;;;18.50;97.90;;;;;;5070107;28;20021;-62
2022/07/26 04:09:30;;;;;;;5.32;2.28;;;18.50;97.90;;;;;;5068994;28;20024;-62
2022/07/26 04:11:56;;;;;;;3.97;1.50;;;18.50;97.90;;;;;;5070610;28;20048;-62
2022/07/26 04:14:21;;;;;;;4.60;1.30;;;18.40;98.00;;;;;;5069001;28;20111;-62
2022/07/26 04:16:47;;;;;;;5.55;1.35;;;18.50;98.10;;;;;;5068669;28;20070;-61
2022/07/26 04:19:13;;;;;;;7.40;1.88;;;18.40;98.10;;;;;;5069856;28;20400;-62
2022/07/26 04:21:38;;;;;;;5.22;1.40;;;18.50;98.10;;;;;;5070262;28;20348;-62
2022/07/26 04:24:04;;;;;;;6.43;1.55;;;18.50;98.10;;;;;;5067017;28;20484;-62
2022/07/26 04:26:30;;;;;;;4.57;1.70;;;18.50;98.10;;;;;;5070713;28;20029;-62
2022/07/26 04:28:56;;;;;;;5.50;1.42;;;18.50;98.10;;;;;;5066727;28;20055;-62
2022/07/26 04:31:22;;;;;;;5.82;1.88;;;18.50;98.10;;;;;;5067624;28;20476;-62
2022/07/26 04:33:48;;;;;;;9.40;2.08;;;18.50;98.10;;;;;;5067724;28;20028;-62
2022/07/26 04:36:13;;;;;;;5.18;1.58;;;18.50;98.10;;;;;;5069668;28;20020;-62
2022/07/26 04:38:40;;;;;;;5.03;1.30;;;18.60;98.20;;;;;;5069353;28;20039;-62
2022/07/26 04:41:05;;;;;;;5.05;1.40;;;18.60;98.20;;;;;;5068445;28;20382;-62
2022/07/26 04:43:31;;;;;;;6.60;1.77;;;18.60;98.10;;;;;;5069343;28;20310;-62
2022/07/26 04:45:56;;;;;;;6.03;1.80;;;18.60;98.20;;;;;;5073191;28;20484;-62
2022/07/26 04:48:22;;;;;;;4.65;1.23;;;18.60;98.20;;;;;;5072626;28;20097;-62
2022/07/26 04:50:48;;;;;;;4.30;1.40;;;18.60;98.20;;;;;;5069819;28;20024;-62
2022/07/26 04:53:14;;;;;;;4.10;1.30;;;18.60;98.50;;;;;;5080060;28;20055;-62
2022/07/26 04:55:40;;;;;;;5.70;1.60;;;18.60;98.20;;;;;;5072834;28;20023;-62
2022/07/26 04:58:06;;;;;;;7.25;2.30;;;18.60;98.30;;;;;;5075132;28;20381;-62
2022/07/26 05:00:32;;;;;;;6.40;1.95;;;18.60;98.30;;;;;;5071979;28;20045;-62
2022/07/26 05:02:59;;;;;;;5.80;1.65;;;18.60;98.40;;;;;;5070043;28;20043;-62
2022/07/26 05:05:27;;;;;;;4.88;1.75;;;18.60;98.50;;;;;;5072461;28;20522;-62
2022/07/26 05:07:58;;;;;;;5.72;1.85;;;18.60;98.60;;;;;;5066512;28;20489;-62
2022/07/26 05:10:36;;;;;;;6.10;2.00;;;18.60;98.60;;;;;;5071040;28;20048;-62
2022/07/26 05:13:06;;;;;;;5.88;2.10;;;18.60;98.60;;;;;;5073682;28;20500;-62
2022/07/26 05:15:33;;;;;;;6.28;1.83;;;18.60;98.80;;;;;;5071652;28;20074;-62
2022/07/26 05:18:07;;;;;;;6.00;1.98;;;18.60;98.80;;;;;;5072491;28;20031;-62
2022/07/26 05:20:32;;;;;;;5.97;2.13;;;18.60;98.90;;;;;;5072493;28;20027;-62
2022/07/26 05:23:02;;;;;;;4.00;1.73;;;18.60;98.90;;;;;;5072260;28;20032;-62
2022/07/26 05:25:28;;;;;;;4.93;1.98;;;18.60;99.00;;;;;;5071902;28;20116;-62
2022/07/26 05:27:53;;;;;;;4.03;1.90;;;18.60;99.10;;;;;;5071793;28;20107;-62
2022/07/26 05:30:19;;;;;;;8.75;2.40;;;18.60;99.10;;;;;;5069443;28;20036;-62
2022/07/26 05:32:45;;;;;;;4.80;1.52;;;18.60;99.10;;;;;;5071886;28;20031;-62
2022/07/26 05:35:10;;;;;;;4.22;1.73;;;18.60;99.10;;;;;;5071970;28;20532;-62
2022/07/26 05:37:36;;;;;;;4.80;1.60;;;18.60;99.10;;;;;;5068393;28;20607;-62
2022/07/26 05:40:04;;;;;;;5.30;2.03;;;18.70;99.10;;;;;;5067672;28;20158;-62
2022/07/26 05:42:29;;;;;;;5.22;2.30;;;18.70;99.00;;;;;;5072091;28;20032;-62
2022/07/26 05:44:55;;;;;;;6.43;2.45;;;18.70;99.00;;;;;;5059459;28;20025;-62
2022/07/26 05:47:21;;;;;;;4.70;1.80;;;18.70;99.00;;;;;;5069946;28;20043;-62
2022/07/26 05:49:46;;;;;;;5.65;2.40;;;18.80;99.00;;;;;;5069416;28;20028;-62
2022/07/26 05:52:12;;;;;;;6.68;2.28;;;18.80;99.00;;;;;;5067477;28;20021;-62
2022/07/26 05:54:37;;;;;;;6.40;2.65;;;18.80;98.90;;;;;;5056025;28;20036;-62
2022/07/26 05:57:04;;;;;;;4.88;2.38;;;18.80;98.90;;;;;;5069107;28;20495;-62
2022/07/26 05:59:29;;;;;;;10.13;2.75;;;18.90;98.90;;;;;;5073650;28;20041;-63
2022/07/26 06:01:55;;;;;;;6.47;2.28;;;18.90;98.90;;;;;;5063711;28;20031;-62
2022/07/26 06:04:22;;;;;;;5.22;2.63;;;18.90;98.80;;;;;;5068225;28;20028;-63
2022/07/26 06:06:48;;;;;;;6.30;1.88;;;18.90;98.80;;;;;;5064025;28;20044;-62
2022/07/26 06:09:14;;;;;;;3.40;1.98;;;19.00;98.70;;;;;;5059190;28;20552;-62
2022/07/26 06:11:39;;;;;;;7.38;1.85;;;19.10;98.70;;;;;;5072737;28;20119;-62
2022/07/26 06:14:05;;;;;;;3.67;1.70;;;19.20;98.60;;;;;;5054492;28;20025;-62
2022/07/26 06:16:30;;;;;;;3.85;1.45;;;19.20;98.50;;;;;;5079264;28;20024;-63
2022/07/26 06:18:56;;;;;;;4.07;1.60;;;19.20;98.40;;;;;;5053714;28;20362;-62
2022/07/26 06:21:22;;;;;;;4.15;1.10;;;19.30;98.30;;;;;;5059148;28;20016;-62
2022/07/26 06:23:48;;;;;;;4.30;1.23;;;19.40;98.30;;;;;;5070119;28;20036;-62
2022/07/26 06:26:14;;;;;;;3.22;1.40;;;19.40;98.20;;;;;;5071824;28;20017;-62
2022/07/26 06:28:40;;;;;;;3.70;1.23;;;19.50;98.10;;;;;;5058366;28;20024;-62
2022/07/26 06:31:05;;;;;;;4.18;1.08;;;19.50;98.00;;;;;;5071817;28;20496;-62
2022/07/26 06:33:31;;;;;;;5.45;1.45;;;19.60;97.90;;;;;;5070536;28;20112;-63
2022/07/26 06:35:57;;;;;;;4.70;1.77;;;19.60;97.70;;;;;;5063545;28;20384;-62
2022/07/26 06:38:22;;;;;;;2.03;1.05;;;19.60;97.50;;;;;;5065546;28;20025;-62
2022/07/26 06:40:48;;;;;;;2.80;0.77;;;19.60;97.40;;;;;;5065632;28;20023;-62
2022/07/26 06:43:13;;;;;;;2.17;1.00;;;19.60;97.30;;;;;;5065988;28;20075;-62
2022/07/26 06:45:39;;;;;;;2.45;1.00;;;19.70;97.20;;;;;;5080438;28;20037;-62
2022/07/26 06:48:05;;;;;;;3.08;1.48;;;19.70;97.10;;;;;;5059334;28;20389;-62
2022/07/26 06:50:30;;;;;;;3.35;0.90;;;19.70;96.90;;;;;;5071401;28;20032;-62
2022/07/26 06:52:56;;;;;;;4.28;1.00;;;19.80;96.70;;;;;;5067517;28;20051;-62
2022/07/26 06:55:21;;;;;;;3.70;0.88;;;19.80;96.50;;;;;;5067411;28;20067;-62
2022/07/26 06:57:47;;;;;;;3.63;0.85;;;19.90;96.20;;;;;;5081956;28;20021;-62
2022/07/26 07:00:13;;;;;;;2.03;0.90;;;19.90;95.70;;;;;;5067463;28;20400;-63
2022/07/26 07:02:39;;;;;;;3.67;1.02;;;20.00;95.20;;;;;;5063729;28;20032;-62
2022/07/26 07:05:05;;;;;;;1.95;0.98;;;20.00;94.90;;;;;;5066194;28;20123;-62
2022/07/26 07:07:30;;;;;;;2.47;0.90;;;20.00;94.60;;;;;;5072849;28;20021;-62
2022/07/26 07:09:56;;;;;;;1.98;0.80;;;20.00;94.50;;;;;;5069959;28;20094;-62
2022/07/26 07:12:21;;;;;;;3.47;0.90;;;20.10;94.40;;;;;;5065321;28;20067;-62
2022/07/26 07:14:47;;;;;;;4.72;1.63;;;20.20;94.40;;;;;;5066003;28;20013;-62
2022/07/26 07:17:18;;;;;;;4.15;0.90;;;20.20;94.30;;;;;;5054509;28;20068;-63
2022/07/26 07:19:43;;;;;;;1.73;0.60;;;20.30;94.20;;;;;;5056106;28;20043;-62
2022/07/26 07:22:10;;;;;;;2.40;0.88;;;20.30;94.10;;;;;;5071380;28;20557;-62
2022/07/26 07:24:36;;;;;;;5.25;0.90;;;20.40;94.00;;;;;;5056233;28;20082;-62
2022/07/26 07:27:02;;;;;;;4.40;1.20;;;20.40;94.00;;;;;;5075254;28;20096;-63
2022/07/26 07:29:28;;;;;;;4.30;1.27;;;20.40;94.00;;;;;;5055737;28;20495;-63
2022/07/26 07:31:53;;;;;;;1.98;0.57;;;20.40;94.00;;;;;;5069273;28;20033;-62
2022/07/26 07:34:21;;;;;;;2.53;0.60;;;20.50;94.10;;;;;;5068606;28;20053;-63
2022/07/26 07:36:48;;;;;;;2.00;0.40;;;20.50;94.10;;;;;;5070741;28;20015;-62
2022/07/26 07:39:14;;;;;;;2.70;0.38;;;20.60;94.00;;;;;;5067789;28;20023;-62
2022/07/26 07:41:39;;;;;;;1.52;0.50;;;20.60;94.00;;;;;;5068372;28;20031;-62
2022/07/26 07:44:08;;;;;;;0.88;0.30;;;20.60;94.10;;;;;;5071036;28;20024;-63
2022/07/26 07:47:02;;;;;;;0.63;0.40;;;20.50;94.20;;;;;;5066679;28;20048;-63
2022/07/26 07:49:28;;;;;;;1.30;0.40;;;20.40;94.20;;;;;;5050516;28;20025;-62
2022/07/26 07:51:53;;;;;;;1.67;0.40;;;20.30;94.40;;;;;;5065120;28;20035;-63
2022/07/26 07:54:19;;;;;;;1.90;0.63;;;20.30;94.70;;;;;;5050731;28;20032;-63
2022/07/26 07:56:44;;;;;;;1.00;0.20;;;20.20;94.50;;;;;;5050376;28;20468;-63
2022/07/26 07:59:10;;;;;;;1.70;0.40;;;20.20;94.60;;;;;;5059602;28;20017;-63
2022/07/26 08:01:36;;;;;;;1.48;0.30;;;20.20;94.70;;;;;;5053958;28;20119;-62
2022/07/26 08:04:01;;;;;;;1.27;0.30;;;20.10;94.80;;;;;;5068888;28;20021;-63
2022/07/26 08:06:27;;;;;;;0.90;0.20;;;20.10;95.00;;;;;;5054571;28;20041;-62
2022/07/26 08:08:52;;;;;;;2.03;0.40;;;20.00;95.10;;;;;;5055535;28;20045;-62
2022/07/26 08:11:18;;;;;;;1.23;0.30;;;20.00;95.10;;;;;;5054233;28;20029;-62
2022/07/26 08:13:43;;;;;;;1.80;0.30;;;20.00;95.10;;;;;;5069602;28;20021;-62
2022/07/26 08:16:09;;;;;;;1.02;0.30;;;20.00;95.20;;;;;;5053776;28;20029;-62
2022/07/26 08:18:35;;;;;;;1.58;0.32;;;20.00;95.20;;;;;;5055997;28;20013;-62
2022/07/26 08:21:02;;;;;;;1.23;0.30;;;20.00;95.10;;;;;;5071348;28;20402;-63
2022/07/26 08:23:27;;;;;;;1.50;0.30;;;20.00;95.10;;;;;;5067690;28;20392;-62
2022/07/26 08:25:53;;;;;;;2.03;0.35;;;20.00;95.10;;;;;;5072175;28;20029;-62
2022/07/26 08:28:18;;;;;;;1.48;0.35;;;20.00;95.20;;;;;;5063948;28;20024;-62
2022/07/26 08:30:44;;;;;;;1.52;0.40;;;20.10;95.20;;;;;;5056067;28;20504;-62
2022/07/26 08:33:09;;;;;;;1.25;0.30;;;20.20;95.20;;;;;;5054768;28;20060;-62
2022/07/26 08:35:35;;;;;;;1.77;0.40;;;20.30;95.10;;;;;;5069446;28;20434;-62
2022/07/26 08:38:00;;;;;;;2.60;0.40;;;20.30;95.10;;;;;;5068919;28;20058;-62
2022/07/26 08:40:26;;;;;;;1.50;0.40;;;20.40;95.10;;;;;;5066069;28;20597;-62
2022/07/26 08:42:54;;;;;;;1.30;0.35;;;20.50;95.10;;;;;;5058378;28;20021;-62
2022/07/26 08:45:24;;;;;;;2.22;0.40;;;20.60;95.00;;;;;;5056558;28;20032;-62
2022/07/26 08:47:53;;;;;;;1.67;0.47;;;20.70;94.90;;;;;;5060218;28;20115;-63
2022/07/26 08:50:20;;;;;;;1.40;0.35;;;20.80;94.80;;;;;;5063220;28;20480;-63
2022/07/26 08:52:46;;;;;;;1.25;0.30;;;20.90;94.70;;;;;;5054259;28;20542;-63
2022/07/26 08:55:16;;;;;;;1.75;0.40;;;21.00;94.50;;;;;;5071759;28;20052;-63
2022/07/26 08:57:42;;;;;;;1.42;0.30;;;21.10;94.40;;;;;;5063021;28;20376;-62
2022/07/26 09:00:28;;;;;;;2.58;0.40;;;21.20;94.40;;;;;;5058405;28;20045;-63
2022/07/26 09:02:54;;;;;;;1.77;0.40;;;21.20;94.20;;;;;;5055505;28;20028;-63
2022/07/26 09:05:31;;;;;;;2.10;0.40;;;21.20;94.10;;;;;;5068219;28;20036;-62
2022/07/26 09:07:57;;;;;;;1.33;0.30;;;21.20;94.20;;;;;;5068189;28;20089;-63
2022/07/26 09:10:23;;;;;;;1.83;0.85;;;21.20;94.30;;;;;;5055854;28;20021;-63
2022/07/26 09:12:57;;;;;;;1.55;0.30;;;21.30;94.20;;;;;;5052678;28;20032;-63
2022/07/26 09:15:26;;;;;;;1.85;0.40;;;21.30;94.10;;;;;;5068143;28;20048;-63
2022/07/26 09:17:55;;;;;;;1.25;0.40;;;21.30;94.20;;;;;;5052740;28;20024;-63
2022/07/26 09:20:27;;;;;;;1.17;0.28;;;21.40;94.10;;;;;;5054391;28;20029;-63
2022/07/26 09:22:57;;;;;;;1.30;0.30;;;21.50;93.90;;;;;;5054119;28;20575;-63
2022/07/26 09:25:32;;;;;;;2.28;0.47;;;21.60;93.70;;;;;;5059634;28;20025;-63
2022/07/26 09:27:58;;;;;;;1.45;0.20;;;21.70;93.50;;;;;;5056811;28;20029;-63
2022/07/26 09:30:25;;;;;;;0.73;0.20;;;21.80;93.40;;;;;;5055952;28;20021;-63
2022/07/26 09:36:50;;;;;;;0.57;0.20;;;22.00;93.00;;;;;;5044893;28;20033;-63
2022/07/26 09:39:16;;;;;;;1.48;0.30;;;22.10;92.90;;;;;;5055902;28;20020;-63
2022/07/26 09:41:41;;;;;;;2.13;0.43;;;22.10;92.80;;;;;;5067036;28;20017;-63
2022/07/26 09:44:21;;;;;;;0.77;0.30;;;22.10;92.50;;;;;;5067959;28;20056;-63
2022/07/26 09:46:53;;;;;;;;;;;22.20;92.40;;;;;;5060930;28;20021;-63
2022/07/26 09:49:21;;;;;;;2.30;0.30;;;22.10;92.60;;;;;;5057459;28;20363;-63
2022/07/26 09:51:49;;;;;;;0.85;0.30;;;22.10;92.50;;;;;;5060496;28;20067;-63
2022/07/26 09:54:28;;;;;;;0.82;0.28;;;22.20;92.30;;;;;;5058758;28;20017;-63
2022/07/26 09:56:53;;;;;;;;;;;22.20;92.10;;;;;;5070933;28;20111;-63
2022/07/26 09:59:21;;;;;;;2.20;0.35;;;22.20;92.10;;;;;;5074932;28;20457;-63
2022/07/26 10:02:02;;;;;;;1.73;0.30;;;22.20;91.90;;;;;;5070101;28;20030;-63
2022/07/26 10:04:28;;;;;;;2.83;0.50;;;22.30;91.60;;;;;;5054230;28;20040;-63
2022/07/26 10:06:56;;;;;;;1.85;0.40;;;22.30;91.70;;;;;;5058400;28;20021;-63
2022/07/26 10:09:22;;;;;;;1.63;0.28;;;22.40;91.60;;;;;;5072025;28;20142;-62
2022/07/26 10:11:55;;;;;;;2.22;0.30;;;22.50;91.30;;;;;;5071236;28;20099;-63
2022/07/26 10:14:48;;;;;;;0.80;0.30;;;22.70;91.00;;;;;;5068355;28;20119;-63
2022/07/26 10:17:25;;;;;;;2.30;0.22;;;22.80;90.80;;;;;;5068298;28;20017;-63
2022/07/26 10:19:55;;;;;;;0.80;0.30;;;22.90;90.50;;;;;;5065693;28;20024;-63
2022/07/26 10:22:30;;;;;;;1.83;0.70;;;22.90;90.40;;;;;;5053240;28;20116;-63
2022/07/26 10:25:16;;;;;;;1.85;0.20;;;22.90;90.00;;;;;;5068048;28;20032;-63
2022/07/26 10:27:43;;;;;;;3.58;0.40;;;22.70;90.00;;;;;;5036282;28;20025;-62
2022/07/26 10:30:18;;;;;;;0.75;0.20;;;22.50;90.10;;;;;;5056697;28;20021;-63
2022/07/26 10:32:55;;;;;;;0.52;0.30;;;22.30;90.30;;;;;;5052570;28;20029;-63
2022/07/26 10:35:43;;;;;;;2.28;0.40;;;22.30;90.60;;;;;;5051294;28;20021;-63
2022/07/26 10:38:10;;;;;;;0.98;0.22;;;22.30;90.70;;;;;;5053981;28;20017;-63
2022/07/26 10:40:37;;;;;;;1.85;0.30;;;22.30;90.80;;;;;;5051187;28;20476;-63
2022/07/26 10:43:15;;;;;;;1.25;0.20;;;22.50;90.90;;;;;;5061995;28;20120;-63
2022/07/26 10:45:41;;;;;;;1.88;0.30;;;22.60;90.80;;;;;;5069820;28;20021;-63
2022/07/26 10:48:14;;;;;;;2.05;0.85;;;22.60;90.90;;;;;;5053497;28;20025;-63
2022/07/26 10:50:41;;;;;;;0.70;0.30;;;22.70;90.80;;;;;;5069029;28;20091;-63
2022/07/26 10:53:09;;;;;;;2.10;0.40;;;22.80;90.80;;;;;;5052660;28;20025;-63
2022/07/26 10:55:51;;;;;;;1.63;0.47;;;22.70;90.80;;;;;;5080620;28;20107;-63
2022/07/26 10:58:18;;;;;;;2.63;0.38;;;22.60;90.70;;;;;;5062401;28;20431;-63
2022/07/26 11:01:01;;;;;;;2.10;0.30;;;22.60;90.50;;;;;;5067642;28;20079;-63
2022/07/26 11:03:40;;;;;;;2.58;0.68;;;22.70;90.20;;;;;;5052466;28;20031;-63
2022/07/26 11:06:14;;;;;;;1.10;0.30;;;22.80;90.00;;;;;;5084181;28;20024;-63
2022/07/26 11:08:41;;;;;;;1.52;0.30;;;22.80;89.20;;;;;;5063248;28;20024;-63
2022/07/26 11:11:07;;;;;;;1.67;0.30;;;22.90;88.30;;;;;;5056216;28;20033;-64
2022/07/26 11:13:35;;;;;;;1.20;0.30;;;22.80;88.30;;;;;;5051034;28;20029;-64
2022/07/26 11:16:05;;;;;;;1.45;0.20;;;22.70;88.40;;;;;;5052955;28;20469;-63
2022/07/26 11:18:35;;;;;;;1.00;0.25;;;22.90;88.00;;;;;;5055650;28;20021;-63
2022/07/26 11:21:13;;;;;;;2.08;0.30;;;23.00;87.80;;;;;;5061708;28;20032;-63
2022/07/26 11:23:43;;;;;;;2.92;0.40;;;23.10;87.60;;;;;;5061996;28;20017;-63
2022/07/26 11:26:09;;;;;;;1.48;0.40;;;23.10;87.00;;;;;;5051319;28;20487;-63
2022/07/26 11:28:57;;;;;;;1.55;0.32;;;23.00;87.20;;;;;;5064484;28;20029;-63
2022/07/26 11:31:25;;;;;;;1.67;0.30;;;23.00;87.10;;;;;;5064472;28;20020;-63
2022/07/26 11:33:51;;;;;;;2.30;0.38;;;23.00;87.00;;;;;;5065422;28;20028;-63
2022/07/26 11:36:30;;;;;;;1.05;0.30;;;23.00;87.00;;;;;;5057300;28;20017;-63
2022/07/26 11:38:55;;;;;;;1.13;0.30;;;23.00;87.10;;;;;;5058120;28;20032;-63
2022/07/26 11:41:26;;;;;;;0.93;0.30;;;23.00;87.20;;;;;;5057731;28;20017;-63
2022/07/26 11:43:53;;;;;;;2.47;0.40;;;23.00;87.20;;;;;;5071104;28;20465;-63
2022/07/26 11:46:19;;;;;;;0.85;0.30;;;23.00;87.10;;;;;;5058624;28;20021;-63
2022/07/26 11:48:46;;;;;;;2.13;0.40;;;23.10;87.10;;;;;;5074263;28;20435;-63
2022/07/26 11:51:29;;;;;;;2.00;0.40;;;23.10;86.90;;;;;;5062048;28;20033;-63
2022/07/26 11:53:58;;;;;;;1.83;0.47;;;23.30;86.30;;;;;;5072530;28;20036;-63
2022/07/26 11:56:24;;;;;;;;;;;23.40;86.20;;;;;;5060877;28;20017;-63
2022/07/26 11:58:52;;;;;;;1.90;1.00;;;23.40;85.90;;;;;;5081664;28;20309;-63
2022/07/26 12:01:19;;;;;;;0.55;0.30;;;23.30;85.50;;;;;;5070982;28;20052;-62
2022/07/26 12:03:48;;;;;;;4.15;0.80;;;23.40;85.40;;;;;;5061613;28;20052;-63
2022/07/26 12:06:17;;;;;;;1.17;0.25;;;23.50;85.00;;;;;;5076908;28;20020;-63
2022/07/26 12:08:55;;;;;;;2.03;0.30;;;23.60;84.30;;;;;;5055284;28;20025;-63
2022/07/26 12:11:23;;;;;;;2.50;0.63;;;23.60;83.20;;;;;;5055326;28;20021;-63
2022/07/26 12:14:02;;;;;;;1.05;0.20;;;23.70;82.50;;;;;;5055190;28;20025;-63
2022/07/26 12:16:41;;;;;;;1.92;0.40;;;23.80;81.70;;;;;;5055518;28;20035;-63
2022/07/26 12:19:28;;;;;;;2.95;0.70;;;23.80;80.70;;;;;;5073693;28;20099;-63
2022/07/26 12:22:12;;;;;;;2.28;0.40;;;23.60;79.80;;;;;;5073298;28;20025;-63
2022/07/26 12:24:56;;;;;;;1.05;0.30;;;23.50;80.30;;;;;;5078641;28;20032;-63
2022/07/26 12:27:26;;;;;;;2.53;0.50;;;23.60;80.40;;;;;;5062526;28;20020;-63
2022/07/26 12:30:01;;;;;;;3.33;0.40;;;23.60;79.80;;;;;;5072869;28;20119;-63
2022/07/26 12:32:32;;;;;;;1.30;0.40;;;23.80;79.30;;;;;;5064818;28;20068;-63
2022/07/26 12:35:05;;;;;;;2.30;0.40;;;24.00;78.70;;;;;;5054669;28;20021;-63
2022/07/26 12:37:33;;;;;;;3.00;0.50;;;24.10;77.60;;;;;;5067185;28;20099;-63
2022/07/26 12:40:07;;;;;;;3.13;0.40;;;24.10;77.00;;;;;;5060774;28;20027;-63
2022/07/26 12:43:19;;;;;;;1.38;0.50;;;24.20;76.80;;;;;;5071811;28;20419;-63
2022/07/26 12:45:44;;;;;;;2.28;1.08;;;24.30;76.50;;;;;;5072054;28;20102;-63
2022/07/26 12:48:11;;;;;;;3.67;0.60;;;24.40;76.00;;;;;;5061055;28;20476;-63
2022/07/26 12:50:37;;;;;;;2.40;0.55;;;24.30;75.10;;;;;;5073445;28;20013;-63
2022/07/26 12:53:07;;;;;;;2.03;0.40;;;24.40;75.00;;;;;;5061406;28;20078;-63
2022/07/26 12:55:34;;;;;;;2.83;0.60;;;24.50;74.80;;;;;;5060481;28;20045;-63